sensor_id;sensor_type;location;lat;lon;timestamp;P1;durP1;ratioP1;P2;durP2;ratioP2
1475;SDS011;730;48.870;12.542;2023-08-21T00:01:50;9.00;;;8.30;;
1475;SDS011;730;48.870;12.542;2023-08-21T00:04:16;9.57;;;8.77;;
1475;SDS011;730;48.870;12.542;2023-08-21T00:06:42;9.70;;;8.70;;
1475;SDS011;730;48.870;12.542;2023-08-21T00:09:08;10.27;;;9.27;;
1475;SDS011;730;48.870;12.542;2023-08-21T00:11:34;9.97;;;9.07;;
1475;SDS011;730;48.870;12.542;2023-08-21T00:14:01;9.63;;;8.67;;
1475;SDS011;730;48.870;12.542;2023-08-21T00:16:27;9.70;;;8.90;;
1475;SDS011;730;48.870;12.542;2023-08-21T00:18:54;9.30;;;8.50;;
1475;SDS011;730;48.870;12.542;2023-08-21T00:21:20;9.50;;;8.43;;
1475;SDS011;730;48.870;12.542;2023-08-21T00:23:46;8.70;;;7.90;;
1475;SDS011;730;48.870;12.542;2023-08-21T00:26:12;9.60;;;8.70;;
1475;SDS011;730;48.870;12.542;2023-08-21T00:28:38;9.80;;;8.90;;
1475;SDS011;730;48.870;12.542;2023-08-21T00:31:05;8.83;;;8.00;;
1475;SDS011;730;48.870;12.542;2023-08-21T00:33:32;9.23;;;8.43;;
1475;SDS011;730;48.870;12.542;2023-08-21T00:35:58;9.10;;;8.30;;
1475;SDS011;730;48.870;12.542;2023-08-21T00:38:24;9.40;;;8.57;;
1475;SDS011;730;48.870;12.542;2023-08-21T00:40:51;8.77;;;7.97;;
1475;SDS011;730;48.870;12.542;2023-08-21T00:43:17;10.53;;;9.53;;
1475;SDS011;730;48.870;12.542;2023-08-21T00:45:44;10.37;;;9.47;;
1475;SDS011;730;48.870;12.542;2023-08-21T00:48:12;10.73;;;9.30;;
1475;SDS011;730;48.870;12.542;2023-08-21T00:50:39;9.67;;;8.90;;
1475;SDS011;730;48.870;12.542;2023-08-21T00:53:05;10.70;;;9.80;;
1475;SDS011;730;48.870;12.542;2023-08-21T00:55:32;10.53;;;9.53;;
1475;SDS011;730;48.870;12.542;2023-08-21T00:57:58;11.23;;;10.23;;
1475;SDS011;730;48.870;12.542;2023-08-21T01:00:26;9.47;;;8.63;;
1475;SDS011;730;48.870;12.542;2023-08-21T01:02:54;10.57;;;9.57;;
1475;SDS011;730;48.870;12.542;2023-08-21T01:05:21;9.97;;;9.17;;
1475;SDS011;730;48.870;12.542;2023-08-21T01:07:59;10.40;;;9.50;;
1475;SDS011;730;48.870;12.542;2023-08-21T01:16:10;10.30;;;8.80;;
1475;SDS011;730;48.870;12.542;2023-08-21T01:18:38;12.10;;;11.10;;
1475;SDS011;730;48.870;12.542;2023-08-21T01:21:05;12.27;;;11.27;;
1475;SDS011;730;48.870;12.542;2023-08-21T01:25:57;11.07;;;9.80;;
1475;SDS011;730;48.870;12.542;2023-08-21T01:28:24;10.33;;;9.53;;
1475;SDS011;730;48.870;12.542;2023-08-21T01:30:51;11.80;;;10.80;;
1475;SDS011;730;48.870;12.542;2023-08-21T01:33:27;11.23;;;10.33;;
1475;SDS011;730;48.870;12.542;2023-08-21T01:35:56;10.40;;;9.40;;
1475;SDS011;730;48.870;12.542;2023-08-21T01:38:24;10.10;;;9.20;;
1475;SDS011;730;48.870;12.542;2023-08-21T01:40:51;11.80;;;9.90;;
1475;SDS011;730;48.870;12.542;2023-08-21T01:43:17;13.47;;;10.07;;
1475;SDS011;730;48.870;12.542;2023-08-21T01:45:44;10.60;;;9.67;;
1475;SDS011;730;48.870;12.542;2023-08-21T01:48:10;10.23;;;9.43;;
1475;SDS011;730;48.870;12.542;2023-08-21T01:50:36;11.17;;;10.17;;
1475;SDS011;730;48.870;12.542;2023-08-21T01:53:02;10.33;;;9.53;;
1475;SDS011;730;48.870;12.542;2023-08-21T01:55:28;11.43;;;9.70;;
1475;SDS011;730;48.870;12.542;2023-08-21T01:57:54;10.50;;;9.60;;
1475;SDS011;730;48.870;12.542;2023-08-21T02:00:20;10.50;;;9.50;;
1475;SDS011;730;48.870;12.542;2023-08-21T02:02:46;10.37;;;9.47;;
1475;SDS011;730;48.870;12.542;2023-08-21T02:05:12;10.53;;;9.67;;
1475;SDS011;730;48.870;12.542;2023-08-21T02:07:38;9.80;;;8.97;;
1475;SDS011;730;48.870;12.542;2023-08-21T02:10:04;9.60;;;8.80;;
1475;SDS011;730;48.870;12.542;2023-08-21T02:12:31;8.93;;;8.13;;
1475;SDS011;730;48.870;12.542;2023-08-21T02:14:57;8.93;;;8.20;;
1475;SDS011;730;48.870;12.542;2023-08-21T02:17:25;10.23;;;9.27;;
1475;SDS011;730;48.870;12.542;2023-08-21T02:19:52;12.10;;;10.80;;
1475;SDS011;730;48.870;12.542;2023-08-21T02:22:18;9.90;;;9.00;;
1475;SDS011;730;48.870;12.542;2023-08-21T02:24:44;8.23;;;7.50;;
1475;SDS011;730;48.870;12.542;2023-08-21T02:27:10;8.40;;;7.80;;
1475;SDS011;730;48.870;12.542;2023-08-21T02:29:36;8.27;;;7.67;;
1475;SDS011;730;48.870;12.542;2023-08-21T02:32:02;8.80;;;8.10;;
1475;SDS011;730;48.870;12.542;2023-08-21T02:34:28;8.70;;;8.00;;
1475;SDS011;730;48.870;12.542;2023-08-21T02:36:54;9.07;;;8.17;;
1475;SDS011;730;48.870;12.542;2023-08-21T02:39:20;10.03;;;7.73;;
1475;SDS011;730;48.870;12.542;2023-08-21T02:41:46;8.60;;;7.87;;
1475;SDS011;730;48.870;12.542;2023-08-21T02:44:12;7.97;;;7.27;;
1475;SDS011;730;48.870;12.542;2023-08-21T02:46:38;9.33;;;8.47;;
1475;SDS011;730;48.870;12.542;2023-08-21T02:49:05;11.00;;;10.00;;
1475;SDS011;730;48.870;12.542;2023-08-21T02:51:31;10.47;;;9.57;;
1475;SDS011;730;48.870;12.542;2023-08-21T02:53:57;10.47;;;9.47;;
1475;SDS011;730;48.870;12.542;2023-08-21T02:56:24;9.63;;;8.80;;
1475;SDS011;730;48.870;12.542;2023-08-21T02:58:50;9.47;;;8.67;;
1475;SDS011;730;48.870;12.542;2023-08-21T03:01:16;9.57;;;8.67;;
1475;SDS011;730;48.870;12.542;2023-08-21T03:03:42;10.40;;;9.60;;
1475;SDS011;730;48.870;12.542;2023-08-21T03:06:08;11.40;;;10.37;;
1475;SDS011;730;48.870;12.542;2023-08-21T03:08:34;10.80;;;9.80;;
1475;SDS011;730;48.870;12.542;2023-08-21T03:11:00;11.27;;;10.37;;
1475;SDS011;730;48.870;12.542;2023-08-21T03:13:26;10.13;;;9.30;;
1475;SDS011;730;48.870;12.542;2023-08-21T03:15:52;12.07;;;10.97;;
1475;SDS011;730;48.870;12.542;2023-08-21T03:18:18;10.43;;;9.50;;
1475;SDS011;730;48.870;12.542;2023-08-21T03:20:45;10.87;;;9.77;;
1475;SDS011;730;48.870;12.542;2023-08-21T03:23:12;13.03;;;11.73;;
1475;SDS011;730;48.870;12.542;2023-08-21T03:25:38;12.03;;;11.13;;
1475;SDS011;730;48.870;12.542;2023-08-21T03:28:04;11.83;;;10.73;;
1475;SDS011;730;48.870;12.542;2023-08-21T03:30:30;12.37;;;11.37;;
1475;SDS011;730;48.870;12.542;2023-08-21T03:32:56;10.90;;;9.90;;
1475;SDS011;730;48.870;12.542;2023-08-21T03:35:22;10.77;;;9.87;;
1475;SDS011;730;48.870;12.542;2023-08-21T03:37:48;10.10;;;9.20;;
1475;SDS011;730;48.870;12.542;2023-08-21T03:40:15;10.20;;;9.40;;
1475;SDS011;730;48.870;12.542;2023-08-21T03:42:41;10.23;;;9.27;;
1475;SDS011;730;48.870;12.542;2023-08-21T03:45:08;10.50;;;9.60;;
1475;SDS011;730;48.870;12.542;2023-08-21T03:47:34;10.40;;;9.40;;
1475;SDS011;730;48.870;12.542;2023-08-21T03:50:01;10.47;;;9.40;;
1475;SDS011;730;48.870;12.542;2023-08-21T03:52:27;10.10;;;9.20;;
1475;SDS011;730;48.870;12.542;2023-08-21T03:54:53;9.43;;;8.70;;
1475;SDS011;730;48.870;12.542;2023-08-21T03:57:19;10.43;;;9.53;;
1475;SDS011;730;48.870;12.542;2023-08-21T03:59:45;11.33;;;9.73;;
1475;SDS011;730;48.870;12.542;2023-08-21T04:02:11;11.30;;;10.30;;
1475;SDS011;730;48.870;12.542;2023-08-21T04:04:37;10.77;;;9.87;;
1475;SDS011;730;48.870;12.542;2023-08-21T04:07:03;10.83;;;9.73;;
1475;SDS011;730;48.870;12.542;2023-08-21T04:09:29;11.97;;;9.53;;
1475;SDS011;730;48.870;12.542;2023-08-21T04:11:55;10.80;;;9.90;;
1475;SDS011;730;48.870;12.542;2023-08-21T04:14:21;10.30;;;9.30;;
1475;SDS011;730;48.870;12.542;2023-08-21T04:16:47;12.13;;;11.13;;
1475;SDS011;730;48.870;12.542;2023-08-21T04:19:13;17.30;;;15.70;;
1475;SDS011;730;48.870;12.542;2023-08-21T04:21:39;16.60;;;15.20;;
1475;SDS011;730;48.870;12.542;2023-08-21T04:24:05;14.50;;;13.30;;
1475;SDS011;730;48.870;12.542;2023-08-21T04:26:31;11.57;;;10.57;;
1475;SDS011;730;48.870;12.542;2023-08-21T04:28:57;10.10;;;9.30;;
1475;SDS011;730;48.870;12.542;2023-08-21T04:31:23;10.17;;;9.27;;
1475;SDS011;730;48.870;12.542;2023-08-21T04:33:49;11.43;;;10.40;;
1475;SDS011;730;48.870;12.542;2023-08-21T04:36:15;10.17;;;9.27;;
1475;SDS011;730;48.870;12.542;2023-08-21T04:38:42;10.70;;;9.90;;
1475;SDS011;730;48.870;12.542;2023-08-21T04:41:09;10.80;;;9.80;;
1475;SDS011;730;48.870;12.542;2023-08-21T04:43:35;11.10;;;10.07;;
1475;SDS011;730;48.870;12.542;2023-08-21T04:46:02;11.03;;;10.13;;
1475;SDS011;730;48.870;12.542;2023-08-21T04:48:29;10.07;;;9.27;;
1475;SDS011;730;48.870;12.542;2023-08-21T04:50:55;11.23;;;10.27;;
1475;SDS011;730;48.870;12.542;2023-08-21T04:53:21;10.80;;;9.80;;
1475;SDS011;730;48.870;12.542;2023-08-21T04:55:47;11.90;;;10.77;;
1475;SDS011;730;48.870;12.542;2023-08-21T04:58:13;13.00;;;11.83;;
1475;SDS011;730;48.870;12.542;2023-08-21T05:00:39;15.20;;;13.90;;
1475;SDS011;730;48.870;12.542;2023-08-21T05:03:06;14.13;;;13.03;;
1475;SDS011;730;48.870;12.542;2023-08-21T05:05:35;11.60;;;10.60;;
1475;SDS011;730;48.870;12.542;2023-08-21T05:08:01;10.97;;;9.97;;
1475;SDS011;730;48.870;12.542;2023-08-21T05:10:27;11.10;;;10.10;;
1475;SDS011;730;48.870;12.542;2023-08-21T05:12:56;10.47;;;9.67;;
1475;SDS011;730;48.870;12.542;2023-08-21T05:15:22;10.97;;;9.97;;
1475;SDS011;730;48.870;12.542;2023-08-21T05:17:48;10.60;;;9.70;;
1475;SDS011;730;48.870;12.542;2023-08-21T05:20:14;9.43;;;8.70;;
1475;SDS011;730;48.870;12.542;2023-08-21T05:22:41;9.90;;;9.10;;
1475;SDS011;730;48.870;12.542;2023-08-21T05:25:07;10.40;;;9.60;;
1475;SDS011;730;48.870;12.542;2023-08-21T05:27:33;10.07;;;9.27;;
1475;SDS011;730;48.870;12.542;2023-08-21T05:29:59;9.73;;;8.83;;
1475;SDS011;730;48.870;12.542;2023-08-21T05:32:25;12.10;;;9.43;;
1475;SDS011;730;48.870;12.542;2023-08-21T05:34:51;10.40;;;9.60;;
1475;SDS011;730;48.870;12.542;2023-08-21T05:37:17;10.93;;;10.13;;
1475;SDS011;730;48.870;12.542;2023-08-21T05:39:43;11.13;;;10.00;;
1475;SDS011;730;48.870;12.542;2023-08-21T05:42:09;9.33;;;8.50;;
1475;SDS011;730;48.870;12.542;2023-08-21T05:44:35;10.17;;;9.27;;
1475;SDS011;730;48.870;12.542;2023-08-21T05:47:02;11.67;;;9.73;;
1475;SDS011;730;48.870;12.542;2023-08-21T05:49:28;9.47;;;8.57;;
1475;SDS011;730;48.870;12.542;2023-08-21T05:51:55;10.63;;;9.63;;
1475;SDS011;730;48.870;12.542;2023-08-21T05:54:24;12.37;;;11.07;;
1475;SDS011;730;48.870;12.542;2023-08-21T05:56:50;9.20;;;8.43;;
1475;SDS011;730;48.870;12.542;2023-08-21T05:59:26;9.80;;;9.00;;
1475;SDS011;730;48.870;12.542;2023-08-21T06:01:56;10.57;;;9.70;;
1475;SDS011;730;48.870;12.542;2023-08-21T06:04:22;10.13;;;9.33;;
1475;SDS011;730;48.870;12.542;2023-08-21T06:06:48;10.47;;;9.43;;
1475;SDS011;730;48.870;12.542;2023-08-21T06:09:14;10.03;;;9.10;;
1475;SDS011;730;48.870;12.542;2023-08-21T06:11:42;8.97;;;8.23;;
1475;SDS011;730;48.870;12.542;2023-08-21T06:14:08;9.27;;;8.40;;
1475;SDS011;730;48.870;12.542;2023-08-21T06:16:34;11.10;;;10.10;;
1475;SDS011;730;48.870;12.542;2023-08-21T06:19:00;10.73;;;8.67;;
1475;SDS011;730;48.870;12.542;2023-08-21T06:21:26;9.57;;;8.87;;
1475;SDS011;730;48.870;12.542;2023-08-21T06:23:52;8.43;;;7.83;;
1475;SDS011;730;48.870;12.542;2023-08-21T06:26:19;10.20;;;9.20;;
1475;SDS011;730;48.870;12.542;2023-08-21T06:28:45;8.17;;;7.60;;
1475;SDS011;730;48.870;12.542;2023-08-21T06:31:11;9.57;;;8.77;;
1475;SDS011;730;48.870;12.542;2023-08-21T06:33:37;9.57;;;8.77;;
1475;SDS011;730;48.870;12.542;2023-08-21T06:36:03;9.13;;;8.33;;
1475;SDS011;730;48.870;12.542;2023-08-21T06:38:33;9.27;;;8.63;;
1475;SDS011;730;48.870;12.542;2023-08-21T06:40:59;9.10;;;8.40;;
1475;SDS011;730;48.870;12.542;2023-08-21T06:43:25;7.93;;;7.43;;
1475;SDS011;730;48.870;12.542;2023-08-21T06:45:51;9.47;;;8.83;;
1475;SDS011;730;48.870;12.542;2023-08-21T06:48:17;9.83;;;9.13;;
1475;SDS011;730;48.870;12.542;2023-08-21T06:50:44;9.10;;;8.40;;
1475;SDS011;730;48.870;12.542;2023-08-21T06:53:10;10.27;;;9.47;;
1475;SDS011;730;48.870;12.542;2023-08-21T06:55:36;8.93;;;8.23;;
1475;SDS011;730;48.870;12.542;2023-08-21T06:58:02;11.90;;;11.00;;
1475;SDS011;730;48.870;12.542;2023-08-21T07:00:28;10.80;;;9.93;;
1475;SDS011;730;48.870;12.542;2023-08-21T07:02:54;9.87;;;9.07;;
1475;SDS011;730;48.870;12.542;2023-08-21T07:05:20;9.17;;;8.50;;
1475;SDS011;730;48.870;12.542;2023-08-21T07:07:46;9.90;;;9.20;;
1475;SDS011;730;48.870;12.542;2023-08-21T07:10:12;9.50;;;8.67;;
1475;SDS011;730;48.870;12.542;2023-08-21T07:12:38;8.80;;;8.20;;
1475;SDS011;730;48.870;12.542;2023-08-21T07:15:09;10.50;;;9.50;;
1475;SDS011;730;48.870;12.542;2023-08-21T07:17:35;8.47;;;7.90;;
1475;SDS011;730;48.870;12.542;2023-08-21T07:20:02;9.77;;;8.93;;
1475;SDS011;730;48.870;12.542;2023-08-21T07:22:29;9.27;;;8.50;;
1475;SDS011;730;48.870;12.542;2023-08-21T07:24:55;9.13;;;8.50;;
1475;SDS011;730;48.870;12.542;2023-08-21T07:27:21;9.13;;;8.43;;
1475;SDS011;730;48.870;12.542;2023-08-21T07:29:47;9.27;;;8.67;;
1475;SDS011;730;48.870;12.542;2023-08-21T07:32:13;9.43;;;8.60;;
1475;SDS011;730;48.870;12.542;2023-08-21T07:34:39;9.40;;;8.70;;
1475;SDS011;730;48.870;12.542;2023-08-21T07:37:07;8.90;;;8.30;;
1475;SDS011;730;48.870;12.542;2023-08-21T07:39:34;9.30;;;8.70;;
1475;SDS011;730;48.870;12.542;2023-08-21T07:42:00;8.70;;;8.10;;
1475;SDS011;730;48.870;12.542;2023-08-21T07:44:26;10.53;;;9.67;;
1475;SDS011;730;48.870;12.542;2023-08-21T07:46:53;8.60;;;8.00;;
1475;SDS011;730;48.870;12.542;2023-08-21T07:49:19;9.20;;;8.50;;
1475;SDS011;730;48.870;12.542;2023-08-21T07:51:45;8.80;;;8.30;;
1475;SDS011;730;48.870;12.542;2023-08-21T07:54:11;8.37;;;7.87;;
1475;SDS011;730;48.870;12.542;2023-08-21T07:56:44;9.50;;;8.70;;
1475;SDS011;730;48.870;12.542;2023-08-21T07:59:10;8.10;;;7.60;;
1475;SDS011;730;48.870;12.542;2023-08-21T08:01:36;8.50;;;7.87;;
1475;SDS011;730;48.870;12.542;2023-08-21T08:04:02;8.50;;;7.90;;
1475;SDS011;730;48.870;12.542;2023-08-21T08:06:28;8.83;;;8.23;;
1475;SDS011;730;48.870;12.542;2023-08-21T08:08:54;8.60;;;7.90;;
1475;SDS011;730;48.870;12.542;2023-08-21T08:11:20;8.60;;;8.00;;
1475;SDS011;730;48.870;12.542;2023-08-21T08:13:46;8.20;;;7.70;;
1475;SDS011;730;48.870;12.542;2023-08-21T08:16:12;7.57;;;7.03;;
1475;SDS011;730;48.870;12.542;2023-08-21T08:18:38;7.73;;;7.23;;
1475;SDS011;730;48.870;12.542;2023-08-21T08:21:04;9.00;;;8.17;;
1475;SDS011;730;48.870;12.542;2023-08-21T08:23:30;8.10;;;7.50;;
1475;SDS011;730;48.870;12.542;2023-08-21T08:25:56;7.70;;;7.20;;
1475;SDS011;730;48.870;12.542;2023-08-21T08:28:22;8.33;;;7.73;;
1475;SDS011;730;48.870;12.542;2023-08-21T08:30:49;8.07;;;7.57;;
1475;SDS011;730;48.870;12.542;2023-08-21T08:33:16;8.50;;;7.80;;
1475;SDS011;730;48.870;12.542;2023-08-21T08:35:42;8.60;;;7.90;;
1475;SDS011;730;48.870;12.542;2023-08-21T08:38:09;8.30;;;7.80;;
1475;SDS011;730;48.870;12.542;2023-08-21T08:40:36;8.20;;;7.67;;
1475;SDS011;730;48.870;12.542;2023-08-21T08:43:08;9.50;;;8.70;;
1475;SDS011;730;48.870;12.542;2023-08-21T08:45:34;8.73;;;8.13;;
1475;SDS011;730;48.870;12.542;2023-08-21T08:48:02;9.10;;;8.50;;
1475;SDS011;730;48.870;12.542;2023-08-21T08:50:30;8.67;;;8.03;;
1475;SDS011;730;48.870;12.542;2023-08-21T08:52:58;9.50;;;8.80;;
1475;SDS011;730;48.870;12.542;2023-08-21T08:55:25;9.00;;;8.30;;
1475;SDS011;730;48.870;12.542;2023-08-21T08:57:52;9.70;;;9.10;;
1475;SDS011;730;48.870;12.542;2023-08-21T09:00:19;8.90;;;8.17;;
1475;SDS011;730;48.870;12.542;2023-08-21T09:02:46;8.53;;;7.90;;
1475;SDS011;730;48.870;12.542;2023-08-21T09:05:12;8.83;;;8.03;;
1475;SDS011;730;48.870;12.542;2023-08-21T09:07:38;8.47;;;7.87;;
1475;SDS011;730;48.870;12.542;2023-08-21T09:10:08;8.60;;;7.93;;
1475;SDS011;730;48.870;12.542;2023-08-21T09:12:38;8.57;;;7.93;;
1475;SDS011;730;48.870;12.542;2023-08-21T09:15:08;8.67;;;8.17;;
1475;SDS011;730;48.870;12.542;2023-08-21T09:17:34;9.67;;;8.90;;
1475;SDS011;730;48.870;12.542;2023-08-21T09:20:04;7.50;;;6.83;;
1475;SDS011;730;48.870;12.542;2023-08-21T09:22:31;8.43;;;7.73;;
1475;SDS011;730;48.870;12.542;2023-08-21T09:25:03;8.40;;;7.80;;
1475;SDS011;730;48.870;12.542;2023-08-21T09:27:36;9.47;;;8.67;;
1475;SDS011;730;48.870;12.542;2023-08-21T09:30:04;9.90;;;9.10;;
1475;SDS011;730;48.870;12.542;2023-08-21T09:32:32;8.03;;;7.43;;
1475;SDS011;730;48.870;12.542;2023-08-21T09:35:25;8.80;;;8.03;;
1475;SDS011;730;48.870;12.542;2023-08-21T09:37:52;8.97;;;8.37;;
1475;SDS011;730;48.870;12.542;2023-08-21T09:40:19;8.73;;;8.03;;
1475;SDS011;730;48.870;12.542;2023-08-21T09:42:51;10.27;;;9.37;;
1475;SDS011;730;48.870;12.542;2023-08-21T09:45:22;8.47;;;7.97;;
1475;SDS011;730;48.870;12.542;2023-08-21T09:47:49;9.23;;;8.43;;
1475;SDS011;730;48.870;12.542;2023-08-21T09:50:17;9.13;;;8.53;;
1475;SDS011;730;48.870;12.542;2023-08-21T09:52:43;10.00;;;9.40;;
1475;SDS011;730;48.870;12.542;2023-08-21T09:55:11;8.37;;;7.77;;
1475;SDS011;730;48.870;12.542;2023-08-21T09:57:40;8.80;;;8.20;;
1475;SDS011;730;48.870;12.542;2023-08-21T10:00:07;8.53;;;7.93;;
1475;SDS011;730;48.870;12.542;2023-08-21T10:02:41;9.00;;;8.50;;
1475;SDS011;730;48.870;12.542;2023-08-21T10:05:11;9.40;;;8.80;;
1475;SDS011;730;48.870;12.542;2023-08-21T10:07:39;8.03;;;7.53;;
1475;SDS011;730;48.870;12.542;2023-08-21T10:10:08;7.53;;;7.03;;
1475;SDS011;730;48.870;12.542;2023-08-21T10:12:35;8.77;;;7.53;;
1475;SDS011;730;48.870;12.542;2023-08-21T10:15:01;8.63;;;7.97;;
1475;SDS011;730;48.870;12.542;2023-08-21T10:17:27;7.80;;;7.30;;
1475;SDS011;730;48.870;12.542;2023-08-21T10:19:53;8.23;;;7.67;;
1475;SDS011;730;48.870;12.542;2023-08-21T10:25:14;8.10;;;7.10;;
1475;SDS011;730;48.870;12.542;2023-08-21T10:27:41;7.87;;;7.37;;
1475;SDS011;730;48.870;12.542;2023-08-21T10:30:27;7.70;;;7.20;;
1475;SDS011;730;48.870;12.542;2023-08-21T10:32:54;7.63;;;7.13;;
1475;SDS011;730;48.870;12.542;2023-08-21T10:35:22;7.43;;;6.90;;
1475;SDS011;730;48.870;12.542;2023-08-21T10:46:05;8.47;;;7.87;;
1475;SDS011;730;48.870;12.542;2023-08-21T10:48:31;7.23;;;6.73;;
1475;SDS011;730;48.870;12.542;2023-08-21T10:50:58;7.30;;;6.80;;
1475;SDS011;730;48.870;12.542;2023-08-21T10:53:30;6.70;;;6.20;;
1475;SDS011;730;48.870;12.542;2023-08-21T10:55:57;8.20;;;7.60;;
1475;SDS011;730;48.870;12.542;2023-08-21T10:58:26;7.43;;;7.03;;
1475;SDS011;730;48.870;12.542;2023-08-21T11:00:58;9.27;;;7.00;;
1475;SDS011;730;48.870;12.542;2023-08-21T11:03:25;7.33;;;6.83;;
1475;SDS011;730;48.870;12.542;2023-08-21T11:06:04;7.20;;;6.77;;
1475;SDS011;730;48.870;12.542;2023-08-21T11:08:34;7.47;;;6.87;;
1475;SDS011;730;48.870;12.542;2023-08-21T11:11:04;7.30;;;6.73;;
1475;SDS011;730;48.870;12.542;2023-08-21T11:13:31;7.70;;;7.20;;
1475;SDS011;730;48.870;12.542;2023-08-21T11:15:58;8.03;;;7.43;;
1475;SDS011;730;48.870;12.542;2023-08-21T11:18:31;7.53;;;7.00;;
1475;SDS011;730;48.870;12.542;2023-08-21T11:21:10;6.80;;;6.23;;
1475;SDS011;730;48.870;12.542;2023-08-21T11:23:37;8.27;;;7.57;;
1475;SDS011;730;48.870;12.542;2023-08-21T11:26:05;7.33;;;6.80;;
1475;SDS011;730;48.870;12.542;2023-08-21T11:28:32;7.27;;;6.53;;
1475;SDS011;730;48.870;12.542;2023-08-21T11:30:58;7.70;;;7.20;;
1475;SDS011;730;48.870;12.542;2023-08-21T11:33:25;6.80;;;6.30;;
1475;SDS011;730;48.870;12.542;2023-08-21T11:35:53;8.47;;;6.93;;
1475;SDS011;730;48.870;12.542;2023-08-21T11:38:23;7.53;;;7.00;;
1475;SDS011;730;48.870;12.542;2023-08-21T11:40:58;7.10;;;6.40;;
1475;SDS011;730;48.870;12.542;2023-08-21T11:43:41;6.40;;;6.00;;
1475;SDS011;730;48.870;12.542;2023-08-21T11:46:08;8.33;;;7.73;;
1475;SDS011;730;48.870;12.542;2023-08-21T11:48:39;7.10;;;6.60;;
1475;SDS011;730;48.870;12.542;2023-08-21T11:51:09;7.67;;;7.17;;
1475;SDS011;730;48.870;12.542;2023-08-21T11:53:39;6.53;;;6.13;;
1475;SDS011;730;48.870;12.542;2023-08-21T11:56:09;6.77;;;6.27;;
1475;SDS011;730;48.870;12.542;2023-08-21T11:58:37;7.40;;;6.80;;
1475;SDS011;730;48.870;12.542;2023-08-21T12:01:04;7.13;;;6.40;;
1475;SDS011;730;48.870;12.542;2023-08-21T12:03:35;7.00;;;6.50;;
1475;SDS011;730;48.870;12.542;2023-08-21T12:06:08;6.83;;;6.43;;
1475;SDS011;730;48.870;12.542;2023-08-21T12:08:34;6.37;;;5.97;;
1475;SDS011;730;48.870;12.542;2023-08-21T12:11:01;7.30;;;6.67;;
1475;SDS011;730;48.870;12.542;2023-08-21T12:13:27;6.70;;;6.10;;
1475;SDS011;730;48.870;12.542;2023-08-21T12:15:54;7.00;;;6.50;;
1475;SDS011;730;48.870;12.542;2023-08-21T12:18:20;6.93;;;6.40;;
1475;SDS011;730;48.870;12.542;2023-08-21T12:20:46;6.50;;;6.00;;
1475;SDS011;730;48.870;12.542;2023-08-21T12:23:12;6.10;;;5.70;;
1475;SDS011;730;48.870;12.542;2023-08-21T12:25:38;7.00;;;6.40;;
1475;SDS011;730;48.870;12.542;2023-08-21T12:28:05;5.77;;;5.37;;
1475;SDS011;730;48.870;12.542;2023-08-21T12:30:32;6.20;;;5.60;;
1475;SDS011;730;48.870;12.542;2023-08-21T12:32:58;6.63;;;6.10;;
1475;SDS011;730;48.870;12.542;2023-08-21T12:35:24;6.10;;;5.70;;
1475;SDS011;730;48.870;12.542;2023-08-21T12:37:50;5.17;;;4.87;;
1475;SDS011;730;48.870;12.542;2023-08-21T12:40:16;5.53;;;5.23;;
1475;SDS011;730;48.870;12.542;2023-08-21T12:42:42;5.87;;;5.47;;
1475;SDS011;730;48.870;12.542;2023-08-21T12:45:08;6.23;;;5.27;;
1475;SDS011;730;48.870;12.542;2023-08-21T12:47:34;5.73;;;5.13;;
1475;SDS011;730;48.870;12.542;2023-08-21T12:50:00;6.30;;;5.60;;
1475;SDS011;730;48.870;12.542;2023-08-21T12:52:26;5.90;;;4.40;;
1475;SDS011;730;48.870;12.542;2023-08-21T12:54:52;5.37;;;4.97;;
1475;SDS011;730;48.870;12.542;2023-08-21T12:57:18;6.10;;;5.60;;
1475;SDS011;730;48.870;12.542;2023-08-21T12:59:44;5.80;;;5.40;;
1475;SDS011;730;48.870;12.542;2023-08-21T13:02:10;5.23;;;4.93;;
1475;SDS011;730;48.870;12.542;2023-08-21T13:04:36;5.40;;;5.10;;
1475;SDS011;730;48.870;12.542;2023-08-21T13:07:02;5.60;;;5.00;;
1475;SDS011;730;48.870;12.542;2023-08-21T13:09:28;5.93;;;5.43;;
1475;SDS011;730;48.870;12.542;2023-08-21T13:11:54;6.47;;;5.20;;
1475;SDS011;730;48.870;12.542;2023-08-21T13:14:20;5.57;;;5.13;;
1475;SDS011;730;48.870;12.542;2023-08-21T13:16:47;5.30;;;4.90;;
1475;SDS011;730;48.870;12.542;2023-08-21T13:19:13;5.63;;;5.20;;
1475;SDS011;730;48.870;12.542;2023-08-21T13:21:39;5.23;;;4.83;;
1475;SDS011;730;48.870;12.542;2023-08-21T13:24:05;5.00;;;4.70;;
1475;SDS011;730;48.870;12.542;2023-08-21T13:26:32;5.60;;;5.10;;
1475;SDS011;730;48.870;12.542;2023-08-21T13:28:58;5.40;;;4.90;;
1475;SDS011;730;48.870;12.542;2023-08-21T13:31:25;5.03;;;4.67;;
1475;SDS011;730;48.870;12.542;2023-08-21T13:33:51;4.17;;;3.97;;
1475;SDS011;730;48.870;12.542;2023-08-21T13:36:19;4.83;;;4.43;;
1475;SDS011;730;48.870;12.542;2023-08-21T13:38:46;5.67;;;5.10;;
1475;SDS011;730;48.870;12.542;2023-08-21T13:41:12;5.20;;;4.77;;
1475;SDS011;730;48.870;12.542;2023-08-21T13:43:38;4.57;;;4.27;;
1475;SDS011;730;48.870;12.542;2023-08-21T13:46:04;4.23;;;3.93;;
1475;SDS011;730;48.870;12.542;2023-08-21T13:48:31;4.60;;;4.30;;
1475;SDS011;730;48.870;12.542;2023-08-21T13:50:57;5.10;;;4.67;;
1475;SDS011;730;48.870;12.542;2023-08-21T13:53:23;4.63;;;4.30;;
1475;SDS011;730;48.870;12.542;2023-08-21T13:55:50;5.30;;;4.90;;
1475;SDS011;730;48.870;12.542;2023-08-21T13:58:16;5.00;;;4.60;;
1475;SDS011;730;48.870;12.542;2023-08-21T14:00:43;5.27;;;4.87;;
1475;SDS011;730;48.870;12.542;2023-08-21T14:03:12;5.33;;;4.80;;
1475;SDS011;730;48.870;12.542;2023-08-21T14:05:38;5.27;;;4.80;;
1475;SDS011;730;48.870;12.542;2023-08-21T14:08:04;6.07;;;5.47;;
1475;SDS011;730;48.870;12.542;2023-08-21T14:10:30;4.80;;;4.50;;
1475;SDS011;730;48.870;12.542;2023-08-21T14:12:56;5.40;;;5.00;;
1475;SDS011;730;48.870;12.542;2023-08-21T14:15:23;5.30;;;4.90;;
1475;SDS011;730;48.870;12.542;2023-08-21T14:17:49;4.67;;;4.27;;
1475;SDS011;730;48.870;12.542;2023-08-21T14:20:15;4.53;;;4.23;;
1475;SDS011;730;48.870;12.542;2023-08-21T14:22:41;3.90;;;3.60;;
1475;SDS011;730;48.870;12.542;2023-08-21T14:25:07;3.17;;;2.80;;
1475;SDS011;730;48.870;12.542;2023-08-21T14:27:34;4.83;;;3.57;;
1475;SDS011;730;48.870;12.542;2023-08-21T14:30:00;4.40;;;4.10;;
1475;SDS011;730;48.870;12.542;2023-08-21T14:32:26;5.53;;;5.13;;
1475;SDS011;730;48.870;12.542;2023-08-21T14:34:52;5.40;;;3.60;;
1475;SDS011;730;48.870;12.542;2023-08-21T14:37:19;3.10;;;2.80;;
1475;SDS011;730;48.870;12.542;2023-08-21T14:39:46;2.87;;;2.67;;
1475;SDS011;730;48.870;12.542;2023-08-21T14:42:12;2.97;;;2.77;;
1475;SDS011;730;48.870;12.542;2023-08-21T14:44:39;4.30;;;2.80;;
1475;SDS011;730;48.870;12.542;2023-08-21T14:47:05;6.17;;;3.47;;
1475;SDS011;730;48.870;12.542;2023-08-21T14:49:31;3.57;;;3.37;;
1475;SDS011;730;48.870;12.542;2023-08-21T14:51:58;9.10;;;4.53;;
1475;SDS011;730;48.870;12.542;2023-08-21T14:54:24;3.50;;;3.30;;
1475;SDS011;730;48.870;12.542;2023-08-21T14:56:50;4.40;;;4.00;;
1475;SDS011;730;48.870;12.542;2023-08-21T14:59:16;4.10;;;3.80;;
1475;SDS011;730;48.870;12.542;2023-08-21T15:01:43;4.33;;;4.03;;
1475;SDS011;730;48.870;12.542;2023-08-21T15:04:09;3.87;;;3.63;;
1475;SDS011;730;48.870;12.542;2023-08-21T15:06:38;4.27;;;3.97;;
1475;SDS011;730;48.870;12.542;2023-08-21T15:09:04;4.60;;;4.30;;
1475;SDS011;730;48.870;12.542;2023-08-21T15:11:31;4.70;;;4.40;;
1475;SDS011;730;48.870;12.542;2023-08-21T15:13:57;4.93;;;4.63;;
1475;SDS011;730;48.870;12.542;2023-08-21T15:16:23;4.27;;;3.97;;
1475;SDS011;730;48.870;12.542;2023-08-21T15:18:49;4.30;;;4.00;;
1475;SDS011;730;48.870;12.542;2023-08-21T15:21:18;5.00;;;4.23;;
1475;SDS011;730;48.870;12.542;2023-08-21T15:23:45;4.77;;;4.47;;
1475;SDS011;730;48.870;12.542;2023-08-21T15:26:11;4.30;;;4.10;;
1475;SDS011;730;48.870;12.542;2023-08-21T15:28:37;4.33;;;4.00;;